createdAt,value
2018-11-05T00:01:28.482Z,11.30
2018-11-05T00:03:56.912Z,11.30
2018-11-05T00:06:25.362Z,11.30
2018-11-05T00:08:53.837Z,11.20
2018-11-05T00:11:22.364Z,11.20
2018-11-05T00:13:50.763Z,11.30
2018-11-05T00:16:19.156Z,11.30
2018-11-05T00:18:47.487Z,11.30
2018-11-05T00:21:15.879Z,11.30
2018-11-05T00:23:44.230Z,11.30
2018-11-05T00:26:12.602Z,11.40
2018-11-05T00:28:41.071Z,11.40
2018-11-05T00:31:09.419Z,11.40
2018-11-05T00:33:37.772Z,11.30
2018-11-05T00:36:06.548Z,11.30
2018-11-05T00:38:35.002Z,11.30
2018-11-05T00:41:03.447Z,11.30
2018-11-05T00:43:31.880Z,11.40
2018-11-05T00:46:00.264Z,11.40
2018-11-05T00:48:28.642Z,11.30
2018-11-05T00:50:57.043Z,11.40
2018-11-05T00:53:25.583Z,11.30
2018-11-05T00:55:53.932Z,11.30
2018-11-05T00:58:22.335Z,11.30
2018-11-05T01:00:50.717Z,11.30
2018-11-05T01:03:19.114Z,11.30
2018-11-05T01:05:53.956Z,11.30
2018-11-05T01:08:22.332Z,11.30
2018-11-05T01:10:50.685Z,11.30
2018-11-05T01:13:19.112Z,11.30
2018-11-05T01:15:47.474Z,11.30
2018-11-05T01:18:15.933Z,11.30
2018-11-05T01:20:44.275Z,11.40
2018-11-05T01:23:12.637Z,11.40
2018-11-05T01:25:40.957Z,11.40
2018-11-05T01:28:09.326Z,11.40
2018-11-05T01:30:37.659Z,11.40
2018-11-05T01:33:06.320Z,11.40
2018-11-05T01:35:34.790Z,11.40
2018-11-05T01:38:03.169Z,11.30
2018-11-05T01:40:31.590Z,11.30
2018-11-05T01:43:00.133Z,11.40
2018-11-05T01:45:28.529Z,11.40
2018-11-05T01:47:56.935Z,11.40
2018-11-05T01:50:25.320Z,11.40
2018-11-05T01:52:53.698Z,11.40
2018-11-05T01:55:22.122Z,11.40
2018-11-05T01:57:50.499Z,11.40
2018-11-05T02:00:18.899Z,11.40
2018-11-05T02:02:47.798Z,11.50
2018-11-05T02:05:16.206Z,11.40
2018-11-05T02:07:45.534Z,11.40
2018-11-05T02:10:18.093Z,11.40
2018-11-05T02:12:46.724Z,11.40
2018-11-05T02:15:15.288Z,11.40
2018-11-05T02:17:44.983Z,11.40
2018-11-05T02:20:14.373Z,11.40
2018-11-05T02:22:42.740Z,11.50
2018-11-05T02:25:12.207Z,11.50
2018-11-05T02:27:41.001Z,11.40
2018-11-05T02:30:11.437Z,11.50
2018-11-05T02:32:39.863Z,11.50
2018-11-05T02:35:09.493Z,11.50
2018-11-05T02:37:45.398Z,11.40
2018-11-05T02:40:14.964Z,11.50
2018-11-05T02:42:43.915Z,11.40
2018-11-05T02:45:13.467Z,11.40
2018-11-05T02:47:41.843Z,11.40
2018-11-05T02:50:11.344Z,11.40
2018-11-05T02:52:40.911Z,11.50
2018-11-05T02:55:09.546Z,11.40
2018-11-05T02:57:38.171Z,11.50
2018-11-05T03:00:11.198Z,11.40
2018-11-05T03:02:39.685Z,11.40
2018-11-05T03:05:10.129Z,11.40
2018-11-05T03:07:38.521Z,11.50
2018-11-05T03:10:07.997Z,11.50
2018-11-05T03:12:36.387Z,11.50
2018-11-05T03:15:05.991Z,11.50
2018-11-05T03:17:34.615Z,11.50
2018-11-05T03:20:02.990Z,11.50
2018-11-05T03:22:31.361Z,11.50
2018-11-05T03:24:59.759Z,11.50
2018-11-05T03:27:28.399Z,11.50
2018-11-05T03:30:03.449Z,11.50
2018-11-05T03:32:31.824Z,11.50
2018-11-05T03:35:00.222Z,11.50
2018-11-05T03:37:28.570Z,11.50
2018-11-05T03:39:56.941Z,11.50
2018-11-05T03:42:25.362Z,11.50
2018-11-05T03:44:53.795Z,11.50
2018-11-05T03:47:22.246Z,11.50
2018-11-05T03:49:50.639Z,11.60
2018-11-05T03:52:19.004Z,11.50
2018-11-05T03:54:47.462Z,11.60
2018-11-05T03:57:15.834Z,11.60
2018-11-05T03:59:44.240Z,11.60
2018-11-05T04:02:12.681Z,11.60
2018-11-05T04:04:41.076Z,11.60
2018-11-05T04:07:09.633Z,11.60
2018-11-05T04:09:39.000Z,11.60
2018-11-05T04:12:07.402Z,11.60
2018-11-05T04:14:35.956Z,11.60
2018-11-05T04:17:04.504Z,11.60
2018-11-05T04:19:32.992Z,11.70
2018-11-05T04:22:01.331Z,11.60
2018-11-05T04:24:30.683Z,11.60
2018-11-05T04:26:59.071Z,11.50
2018-11-05T04:29:27.576Z,11.60
2018-11-05T04:31:56.056Z,11.60
2018-11-05T04:34:24.541Z,11.50
2018-11-05T04:36:52.981Z,11.50
2018-11-05T04:39:21.348Z,11.50
2018-11-05T04:41:49.731Z,11.50
2018-11-05T04:44:18.122Z,11.50
2018-11-05T04:46:46.509Z,11.50
2018-11-05T04:49:14.904Z,11.60
2018-11-05T04:51:43.269Z,11.60
2018-11-05T04:54:11.671Z,11.60
2018-11-05T04:56:40.141Z,11.50
2018-11-05T04:59:08.668Z,11.50
2018-11-05T05:01:37.257Z,11.60
2018-11-05T05:04:05.787Z,11.50
2018-11-05T05:06:34.173Z,11.60
2018-11-05T05:09:02.579Z,11.70
2018-11-05T05:11:31.018Z,11.70
2018-11-05T05:13:59.397Z,11.80
2018-11-05T05:16:27.772Z,11.90
2018-11-05T05:18:56.251Z,11.90
2018-11-05T05:21:24.653Z,11.90
2018-11-05T05:23:53.018Z,11.90
2018-11-05T05:26:21.416Z,12.00
2018-11-05T05:28:49.804Z,12.10
2018-11-05T05:31:18.172Z,12.10
2018-11-05T05:33:46.562Z,12.10
2018-11-05T05:36:14.952Z,11.90
2018-11-05T05:38:43.358Z,11.90
2018-11-05T05:41:11.879Z,11.80
2018-11-05T05:43:40.273Z,11.70
2018-11-05T05:46:08.709Z,11.70
2018-11-05T05:48:37.062Z,11.60
2018-11-05T05:51:05.518Z,11.60
2018-11-05T05:53:34.049Z,11.50
2018-11-05T05:56:02.563Z,11.40
2018-11-05T05:58:30.972Z,11.40
2018-11-05T06:00:59.365Z,11.30
2018-11-05T06:03:27.816Z,11.30
2018-11-05T06:05:56.265Z,11.30
2018-11-05T06:08:24.754Z,11.30
2018-11-05T06:10:53.129Z,11.30
2018-11-05T06:13:21.570Z,11.30
2018-11-05T06:15:49.996Z,11.30
2018-11-05T06:18:18.566Z,11.30
2018-11-05T06:20:47.033Z,11.30
2018-11-05T06:23:15.449Z,11.30
2018-11-05T06:25:43.884Z,11.30
2018-11-05T06:28:12.254Z,11.20
2018-11-05T06:30:40.728Z,11.20
2018-11-05T06:33:09.098Z,11.30
2018-11-05T06:35:38.186Z,11.30
2018-11-05T06:38:06.626Z,11.20
2018-11-05T06:40:35.039Z,11.20
2018-11-05T06:43:03.468Z,11.20
2018-11-05T06:45:31.928Z,11.20
2018-11-05T06:48:00.296Z,11.20
2018-11-05T06:50:28.747Z,11.20
2018-11-05T06:52:57.156Z,11.20
2018-11-05T06:55:25.642Z,11.20
2018-11-05T06:57:54.114Z,11.30
2018-11-05T07:00:23.981Z,11.30
2018-11-05T07:02:52.355Z,11.20
2018-11-05T07:05:20.908Z,11.20
2018-11-05T07:07:49.375Z,11.20
2018-11-05T07:10:24.472Z,11.20
2018-11-05T07:12:53.058Z,11.20
2018-11-05T07:15:21.529Z,11.20
2018-11-05T07:17:50.444Z,11.20
2018-11-05T07:20:20.125Z,11.20
2018-11-05T07:22:49.471Z,11.20
2018-11-05T07:25:21.165Z,11.20
2018-11-05T07:27:50.408Z,11.20
2018-11-05T07:30:21.069Z,11.20
2018-11-05T07:32:50.699Z,11.20
2018-11-05T07:35:19.201Z,11.20
2018-11-05T07:37:47.714Z,11.20
2018-11-05T07:40:17.212Z,11.20
2018-11-05T07:42:45.729Z,11.20
2018-11-05T07:45:20.448Z,11.20
2018-11-05T07:47:49.056Z,11.30
2018-11-05T07:50:18.476Z,11.20
2018-11-05T07:52:47.149Z,11.20
2018-11-05T07:55:16.809Z,11.20
2018-11-05T07:57:46.133Z,11.10
2018-11-05T08:00:20.938Z,11.10
2018-11-05T08:02:51.091Z,11.20
2018-11-05T08:05:20.534Z,11.20
2018-11-05T08:07:49.396Z,11.20
2018-11-05T08:10:17.948Z,11.30
2018-11-05T08:12:46.431Z,11.30
2018-11-05T08:15:16.133Z,11.30
2018-11-05T08:17:45.946Z,11.30
2018-11-05T08:20:14.605Z,11.20
2018-11-05T08:22:43.142Z,11.20
2018-11-05T08:25:12.752Z,11.20
2018-11-05T08:27:41.210Z,11.20
2018-11-05T08:30:13.424Z,11.20
2018-11-05T08:32:42.177Z,11.20
2018-11-05T08:35:11.601Z,11.20
2018-11-05T08:37:40.507Z,11.30
2018-11-05T08:40:13.264Z,11.30
2018-11-05T08:42:42.348Z,11.40
2018-11-05T08:45:11.736Z,11.40
2018-11-05T08:47:40.231Z,11.60
2018-11-05T08:50:10.620Z,11.70
2018-11-05T08:52:39.045Z,11.70
2018-11-05T08:55:09.542Z,11.70
2018-11-05T08:57:38.105Z,11.80
2018-11-05T09:00:13.834Z,11.80
2018-11-05T09:02:42.384Z,11.90
2018-11-05T09:05:14.442Z,12.10
2018-11-05T09:07:44.459Z,12.50
2018-11-05T09:10:13.082Z,12.50
2018-11-05T09:12:41.635Z,12.90
2018-11-05T09:15:12.150Z,13.80
2018-11-05T09:17:41.164Z,14.50
2018-11-05T09:20:10.826Z,15.00
2018-11-05T09:22:39.613Z,15.70
2018-11-05T09:25:08.673Z,16.40
2018-11-05T09:27:37.200Z,17.00
2018-11-05T09:30:09.582Z,17.20
2018-11-05T09:32:38.046Z,17.20
2018-11-05T09:35:06.834Z,17.20
2018-11-05T09:37:35.297Z,17.10
2018-11-05T09:40:04.032Z,17.20
2018-11-05T09:42:32.533Z,17.10
2018-11-05T09:45:00.967Z,17.40
2018-11-05T09:47:29.482Z,17.40
2018-11-05T09:49:57.968Z,17.60
2018-11-05T09:52:26.367Z,16.80
2018-11-05T09:54:54.788Z,16.30
2018-11-05T09:57:23.219Z,16.00
2018-11-05T09:59:51.637Z,15.40
2018-11-05T10:02:20.031Z,14.90
2018-11-05T10:04:48.799Z,14.50
2018-11-05T10:07:17.013Z,14.50
2018-11-05T10:09:45.614Z,14.80
2018-11-05T10:12:13.931Z,15.30
2018-11-05T10:14:42.385Z,15.80
2018-11-05T10:17:10.916Z,15.90
2018-11-05T10:19:39.306Z,16.30
2018-11-05T10:22:07.753Z,16.80
2018-11-05T10:24:36.277Z,16.90
2018-11-05T10:27:04.783Z,16.90
2018-11-05T10:29:33.186Z,17.10
2018-11-05T10:32:01.656Z,17.60
2018-11-05T10:34:30.086Z,17.70
2018-11-05T10:36:58.467Z,18.10
2018-11-05T10:39:26.935Z,18.10
2018-11-05T10:41:55.347Z,17.90
2018-11-05T10:44:23.845Z,17.00
2018-11-05T10:46:52.378Z,16.60
2018-11-05T10:49:20.795Z,16.60
2018-11-05T10:51:49.278Z,16.30
2018-11-05T10:54:18.231Z,15.90
2018-11-05T10:56:46.660Z,15.70
2018-11-05T10:59:15.132Z,15.70
2018-11-05T11:01:49.013Z,15.80
2018-11-05T11:04:23.073Z,15.80
2018-11-05T11:06:51.472Z,15.70
2018-11-05T11:09:19.875Z,15.60
2018-11-05T11:11:48.284Z,15.90
2018-11-05T11:14:16.706Z,16.20
2018-11-05T11:16:51.762Z,16.50
2018-11-05T11:19:20.200Z,16.70
2018-11-05T11:21:48.602Z,17.20
2018-11-05T11:24:17.383Z,17.00
2018-11-05T11:26:45.792Z,16.70
2018-11-05T11:29:14.249Z,16.60
2018-11-05T11:31:42.600Z,16.60
2018-11-05T11:34:11.117Z,16.60
2018-11-05T11:36:39.674Z,16.60
2018-11-05T11:39:09.981Z,16.40
2018-11-05T11:41:38.339Z,16.40
2018-11-05T11:44:07.228Z,16.50
2018-11-05T11:46:36.032Z,16.20
2018-11-05T11:49:05.140Z,16.20
2018-11-05T11:51:33.545Z,16.00
2018-11-05T11:54:01.998Z,15.80
2018-11-05T11:56:30.452Z,15.70
2018-11-05T11:58:58.821Z,15.70
2018-11-05T12:01:27.254Z,16.00
2018-11-05T12:03:55.746Z,16.20
2018-11-05T12:06:24.239Z,16.60
2018-11-05T12:08:52.628Z,16.90
2018-11-05T12:11:21.040Z,16.90
2018-11-05T12:13:49.413Z,16.80
2018-11-05T12:16:17.947Z,16.80
2018-11-05T12:18:46.306Z,16.70
2018-11-05T12:21:14.753Z,16.90
2018-11-05T12:23:43.138Z,17.10
2018-11-05T12:26:11.554Z,17.40
2018-11-05T12:28:39.927Z,17.60
2018-11-05T12:31:08.310Z,17.60
2018-11-05T12:33:36.667Z,17.70
2018-11-05T12:36:05.330Z,18.10
2018-11-05T12:38:33.749Z,17.80
2018-11-05T12:41:02.167Z,17.50
2018-11-05T12:43:30.633Z,17.30
2018-11-05T12:45:59.073Z,17.30
2018-11-05T12:48:27.466Z,17.20
2018-11-05T12:50:55.944Z,17.20
2018-11-05T12:53:24.313Z,17.20
2018-11-05T12:55:52.740Z,17.20
2018-11-05T12:58:21.126Z,17.10
2018-11-05T13:00:49.567Z,17.00
2018-11-05T13:03:17.922Z,17.00
2018-11-05T13:05:46.329Z,16.90
2018-11-05T13:08:14.841Z,16.80
2018-11-05T13:10:43.245Z,16.80
2018-11-05T13:13:11.701Z,16.70
2018-11-05T13:15:40.284Z,16.50
2018-11-05T13:18:08.679Z,16.40
2018-11-05T13:20:37.110Z,16.40
2018-11-05T13:23:05.561Z,16.40
2018-11-05T13:25:33.977Z,16.40
2018-11-05T13:28:02.350Z,16.50
2018-11-05T13:30:30.748Z,16.60
2018-11-05T13:32:59.141Z,17.00
2018-11-05T13:35:27.505Z,17.30
2018-11-05T13:37:56.426Z,17.60
2018-11-05T13:40:24.328Z,17.90
2018-11-05T13:42:53.076Z,18.20
2018-11-05T13:45:22.368Z,18.20
2018-11-05T13:47:51.243Z,18.30
2018-11-05T13:50:18.904Z,18.20
2018-11-05T13:52:47.211Z,18.10
2018-11-05T13:55:16.412Z,18.10
2018-11-05T13:57:45.909Z,18.00
2018-11-05T14:00:15.757Z,17.70
2018-11-05T14:02:50.706Z,17.30
2018-11-05T14:05:19.177Z,17.10
2018-11-05T14:07:47.539Z,16.90
2018-11-05T14:10:17.520Z,16.70
2018-11-05T14:12:46.473Z,16.50
2018-11-05T14:15:15.006Z,16.30
2018-11-05T14:17:44.020Z,16.20
2018-11-05T14:20:13.613Z,16.10
2018-11-05T14:22:42.722Z,16.00
2018-11-05T14:25:13.564Z,15.90
2018-11-05T14:27:42.941Z,15.90
2018-11-05T14:30:12.222Z,15.80
2018-11-05T14:32:41.761Z,15.80
2018-11-05T14:35:10.641Z,15.70
2018-11-05T14:37:39.095Z,15.60
2018-11-05T14:40:08.729Z,15.60
2018-11-05T14:42:37.338Z,15.50
2018-11-05T14:45:07.692Z,15.50
2018-11-05T14:47:36.133Z,15.30
2018-11-05T14:50:05.962Z,15.30
2018-11-05T14:52:34.428Z,15.30
2018-11-05T14:55:02.829Z,15.30
2018-11-05T14:57:31.263Z,15.20
2018-11-05T14:59:59.759Z,15.20
2018-11-05T15:02:33.562Z,15.10
2018-11-05T15:05:01.939Z,15.00
2018-11-05T15:07:30.380Z,15.00
2018-11-05T15:09:58.758Z,14.90
2018-11-05T15:12:27.126Z,14.80
2018-11-05T15:14:55.574Z,14.80
2018-11-05T15:17:24.050Z,14.70
2018-11-05T15:19:52.740Z,14.60
2018-11-05T15:22:21.780Z,14.60
2018-11-05T15:24:50.428Z,14.50
2018-11-05T15:27:18.862Z,14.50
2018-11-05T15:29:47.278Z,14.50
2018-11-05T15:32:15.673Z,14.50
2018-11-05T15:34:44.073Z,14.50
2018-11-05T15:37:12.623Z,14.30
2018-11-05T15:39:40.995Z,14.30
2018-11-05T15:42:09.406Z,14.30
2018-11-05T15:44:37.822Z,14.30
2018-11-05T15:47:06.178Z,14.20
2018-11-05T15:49:34.562Z,14.20
2018-11-05T15:52:03.344Z,14.20
2018-11-05T15:54:31.634Z,14.20
2018-11-05T15:57:00.139Z,14.20
2018-11-05T15:59:28.651Z,14.10
2018-11-05T16:02:02.023Z,14.00
2018-11-05T16:04:30.692Z,14.00
2018-11-05T16:06:59.048Z,13.80
2018-11-05T16:09:27.496Z,13.80
2018-11-05T16:11:55.850Z,13.60
2018-11-05T16:14:24.233Z,13.60
2018-11-05T16:16:52.795Z,13.50
2018-11-05T16:19:21.165Z,13.50
2018-11-05T16:21:49.569Z,13.50
2018-11-05T16:24:18.093Z,13.50
2018-11-05T16:26:46.635Z,13.60
2018-11-05T16:29:15.002Z,13.60
2018-11-05T16:31:43.371Z,13.70
2018-11-05T16:34:11.810Z,13.80
2018-11-05T16:36:40.199Z,13.90
2018-11-05T16:39:10.839Z,13.90
2018-11-05T16:41:39.740Z,14.00
2018-11-05T16:44:08.553Z,14.00
2018-11-05T16:46:37.208Z,14.00
2018-11-05T16:49:05.759Z,14.00
2018-11-05T16:51:34.141Z,14.00
2018-11-05T16:54:02.827Z,14.00
2018-11-05T16:56:31.343Z,14.00
2018-11-05T16:58:59.951Z,13.90
2018-11-05T17:01:28.785Z,13.90
2018-11-05T17:03:56.783Z,13.80
2018-11-05T17:06:25.222Z,13.80
2018-11-05T17:08:53.640Z,13.80
2018-11-05T17:11:22.172Z,13.80
2018-11-05T17:13:50.635Z,13.70
2018-11-05T17:16:19.013Z,13.70
2018-11-05T17:18:47.351Z,13.70
2018-11-05T17:21:15.712Z,13.80
2018-11-05T17:23:44.249Z,13.70
2018-11-05T17:26:12.683Z,13.70
2018-11-05T17:28:41.136Z,13.70
2018-11-05T17:31:09.787Z,13.70
2018-11-05T17:33:38.253Z,13.70
2018-11-05T17:36:06.711Z,13.70
2018-11-05T17:38:35.381Z,13.60
2018-11-05T17:41:03.795Z,13.10
2018-11-05T17:43:32.202Z,13.60
2018-11-05T17:46:00.793Z,13.50
2018-11-05T17:48:29.567Z,13.50
2018-11-05T17:50:58.028Z,13.50
2018-11-05T17:53:26.438Z,13.50
2018-11-05T17:55:54.834Z,13.50
2018-11-05T17:58:23.382Z,13.50
2018-11-05T18:00:51.771Z,13.50
2018-11-05T18:03:20.175Z,13.50
2018-11-05T18:05:48.574Z,13.50
2018-11-05T18:08:17.005Z,13.50
2018-11-05T18:10:45.691Z,13.50
2018-11-05T18:13:14.159Z,13.50
2018-11-05T18:15:42.836Z,13.50
2018-11-05T18:18:11.280Z,13.50
2018-11-05T18:20:39.650Z,13.50
2018-11-05T18:23:08.306Z,13.50
2018-11-05T18:25:36.808Z,13.50
2018-11-05T18:28:05.530Z,13.50
2018-11-05T18:30:33.985Z,13.50
2018-11-05T18:33:02.685Z,13.50
2018-11-05T18:35:31.059Z,13.50
2018-11-05T18:37:59.758Z,13.40
2018-11-05T18:40:28.243Z,13.40
2018-11-05T18:42:56.821Z,13.50
2018-11-05T18:45:25.276Z,13.50
2018-11-05T18:47:53.665Z,13.40
2018-11-05T18:50:22.131Z,13.50
2018-11-05T18:52:50.455Z,13.40
2018-11-05T18:55:19.061Z,13.40
2018-11-05T18:57:47.604Z,13.30
2018-11-05T19:00:19.521Z,13.30
2018-11-05T19:02:48.425Z,13.30
2018-11-05T19:05:17.517Z,13.30
2018-11-05T19:07:46.036Z,13.30
2018-11-05T19:10:14.500Z,13.30
2018-11-05T19:12:42.913Z,13.30
2018-11-05T19:15:12.879Z,13.30
2018-11-05T19:17:41.565Z,13.30
2018-11-05T19:20:10.021Z,13.30
2018-11-05T19:22:39.201Z,13.40
2018-11-05T19:25:09.745Z,13.40
2018-11-05T19:27:45.375Z,13.30
2018-11-05T19:30:22.302Z,13.30
2018-11-05T19:32:50.654Z,13.40
2018-11-05T19:35:19.238Z,13.50
2018-11-05T19:37:47.690Z,13.50
2018-11-05T19:40:17.184Z,13.50
2018-11-05T19:42:46.466Z,13.50
2018-11-05T19:45:16.768Z,13.50
2018-11-05T19:47:45.209Z,13.50
2018-11-05T19:50:17.212Z,13.50
2018-11-05T19:52:46.713Z,13.50
2018-11-05T19:55:16.449Z,13.50
2018-11-05T19:57:45.563Z,13.40
2018-11-05T20:00:15.905Z,13.40
2018-11-05T20:02:44.829Z,13.30
2018-11-05T20:05:13.849Z,13.20
2018-11-05T20:07:42.257Z,13.30
2018-11-05T20:10:11.528Z,13.30
2018-11-05T20:12:40.101Z,13.30
2018-11-05T20:15:09.210Z,13.30
2018-11-05T20:17:38.987Z,13.20
2018-11-05T20:20:09.736Z,13.20
2018-11-05T20:22:38.244Z,13.20
2018-11-05T20:25:07.472Z,13.20
2018-11-05T20:27:36.469Z,13.10
2018-11-05T20:30:06.237Z,13.10
2018-11-05T20:32:35.147Z,13.00
2018-11-05T20:35:03.107Z,13.10
2018-11-05T20:37:31.493Z,13.00
2018-11-05T20:40:00.091Z,13.00
2018-11-05T20:42:28.406Z,13.00
2018-11-05T20:44:56.882Z,13.00
2018-11-05T20:47:25.278Z,12.90
2018-11-05T20:49:53.757Z,12.90
2018-11-05T20:52:22.245Z,12.90
2018-11-05T20:54:50.689Z,12.90
2018-11-05T20:57:19.118Z,12.90
2018-11-05T20:59:47.603Z,12.80
2018-11-05T21:02:16.160Z,12.80
2018-11-05T21:04:44.692Z,12.80
2018-11-05T21:07:13.079Z,12.80
2018-11-05T21:09:41.532Z,12.80
2018-11-05T21:12:09.966Z,12.80
2018-11-05T21:14:44.883Z,12.80
2018-11-05T21:17:13.398Z,12.70
2018-11-05T21:19:41.816Z,12.70
2018-11-05T21:22:13.950Z,12.70
2018-11-05T21:24:42.394Z,12.70
2018-11-05T21:27:10.891Z,12.70
2018-11-05T21:29:39.282Z,12.70
2018-11-05T21:32:07.829Z,12.70
2018-11-05T21:34:36.278Z,12.60
2018-11-05T21:37:04.722Z,12.60
2018-11-05T21:39:33.171Z,12.60
2018-11-05T21:42:01.595Z,12.60
2018-11-05T21:44:30.047Z,12.60
2018-11-05T21:46:59.272Z,12.60
2018-11-05T21:49:27.720Z,12.60
2018-11-05T21:51:56.789Z,12.50
2018-11-05T21:54:25.221Z,12.60
2018-11-05T21:56:53.731Z,12.60
2018-11-05T21:59:22.184Z,12.60
2018-11-05T22:01:50.699Z,12.50
2018-11-05T22:04:19.197Z,12.50
2018-11-05T22:06:47.694Z,12.60
2018-11-05T22:09:16.133Z,12.60
2018-11-05T22:11:44.586Z,12.30
2018-11-05T22:14:13.006Z,12.60
2018-11-05T22:16:41.489Z,12.60
2018-11-05T22:19:09.941Z,12.60
2018-11-05T22:21:38.376Z,12.60
2018-11-05T22:24:06.938Z,12.60
2018-11-05T22:26:35.364Z,12.50
2018-11-05T22:29:03.826Z,12.50
2018-11-05T22:31:32.352Z,12.60
2018-11-05T22:34:00.792Z,12.50
2018-11-05T22:36:29.428Z,12.50
2018-11-05T22:38:57.909Z,12.50
2018-11-05T22:44:05.438Z,12.50
2018-11-05T22:46:33.813Z,12.50
2018-11-05T22:49:02.287Z,12.50
2018-11-05T22:51:30.657Z,12.50
2018-11-05T22:53:59.105Z,12.50
2018-11-05T22:56:27.430Z,12.50
2018-11-05T22:58:55.736Z,12.50
2018-11-05T23:01:29.520Z,12.50
2018-11-05T23:03:57.971Z,12.50
2018-11-05T23:06:26.330Z,12.50
2018-11-05T23:08:54.656Z,12.40
2018-11-05T23:11:22.979Z,12.40
2018-11-05T23:13:51.295Z,12.50
2018-11-05T23:16:19.744Z,12.50
2018-11-05T23:18:48.102Z,12.50
2018-11-05T23:21:16.441Z,12.40
2018-11-05T23:23:44.872Z,12.40
2018-11-05T23:26:13.241Z,12.40
2018-11-05T23:28:41.620Z,12.40
2018-11-05T23:31:09.923Z,12.40
2018-11-05T23:33:38.418Z,12.50
2018-11-05T23:36:06.733Z,12.50
2018-11-05T23:38:35.044Z,12.50
2018-11-05T23:41:03.410Z,12.50
2018-11-05T23:43:31.705Z,12.50
2018-11-05T23:45:59.990Z,12.50
2018-11-05T23:48:28.348Z,12.50
2018-11-05T23:50:56.725Z,12.50
2018-11-05T23:53:25.074Z,12.50
2018-11-05T23:55:53.354Z,12.40
2018-11-05T23:58:21.649Z,12.40
